sensor_id;sensor_type;location;lat;lon;timestamp;P1;durP1;ratioP1;P2;durP2;ratioP2
71777;SDS011;59609;52.430;4.668;2022-07-23T00:00:18;6.53;;;2.45;;
71777;SDS011;59609;52.430;4.668;2022-07-23T00:02:44;4.97;;;2.53;;
71777;SDS011;59609;52.430;4.668;2022-07-23T00:05:10;2.55;;;2.05;;
71777;SDS011;59609;52.430;4.668;2022-07-23T00:07:35;3.28;;;2.17;;
71777;SDS011;59609;52.430;4.668;2022-07-23T00:10:02;2.83;;;2.08;;
71777;SDS011;59609;52.430;4.668;2022-07-23T00:12:28;3.75;;;2.20;;
71777;SDS011;59609;52.430;4.668;2022-07-23T00:14:53;4.25;;;2.58;;
71777;SDS011;59609;52.430;4.668;2022-07-23T00:17:19;5.30;;;2.10;;
71777;SDS011;59609;52.430;4.668;2022-07-23T00:19:44;6.80;;;2.30;;
71777;SDS011;59609;52.430;4.668;2022-07-23T00:22:09;2.67;;;2.38;;
71777;SDS011;59609;52.430;4.668;2022-07-23T00:24:35;3.50;;;2.50;;
71777;SDS011;59609;52.430;4.668;2022-07-23T00:27:00;5.40;;;2.35;;
71777;SDS011;59609;52.430;4.668;2022-07-23T00:29:26;4.85;;;2.17;;
71777;SDS011;59609;52.430;4.668;2022-07-23T00:31:51;4.43;;;2.35;;
71777;SDS011;59609;52.430;4.668;2022-07-23T00:34:16;3.22;;;2.50;;
71777;SDS011;59609;52.430;4.668;2022-07-23T00:36:42;3.90;;;2.55;;
71777;SDS011;59609;52.430;4.668;2022-07-23T00:39:07;3.25;;;2.25;;
71777;SDS011;59609;52.430;4.668;2022-07-23T00:41:33;4.15;;;2.47;;
71777;SDS011;59609;52.430;4.668;2022-07-23T00:44:14;3.50;;;2.88;;
71777;SDS011;59609;52.430;4.668;2022-07-23T00:46:54;3.42;;;2.40;;
71777;SDS011;59609;52.430;4.668;2022-07-23T00:49:23;6.78;;;2.00;;
71777;SDS011;59609;52.430;4.668;2022-07-23T00:51:50;2.65;;;2.20;;
71777;SDS011;59609;52.430;4.668;2022-07-23T00:54:16;2.97;;;2.10;;
71777;SDS011;59609;52.430;4.668;2022-07-23T00:56:43;2.58;;;2.38;;
71777;SDS011;59609;52.430;4.668;2022-07-23T00:59:10;4.70;;;2.20;;
71777;SDS011;59609;52.430;4.668;2022-07-23T01:01:36;3.38;;;2.60;;
71777;SDS011;59609;52.430;4.668;2022-07-23T01:04:02;3.20;;;2.28;;
71777;SDS011;59609;52.430;4.668;2022-07-23T01:06:27;3.40;;;2.45;;
71777;SDS011;59609;52.430;4.668;2022-07-23T01:08:53;2.80;;;2.42;;
71777;SDS011;59609;52.430;4.668;2022-07-23T01:11:20;2.67;;;2.38;;
71777;SDS011;59609;52.430;4.668;2022-07-23T01:13:48;3.00;;;2.42;;
71777;SDS011;59609;52.430;4.668;2022-07-23T01:16:13;3.95;;;2.67;;
71777;SDS011;59609;52.430;4.668;2022-07-23T01:18:38;4.22;;;2.67;;
71777;SDS011;59609;52.430;4.668;2022-07-23T01:21:04;4.55;;;2.80;;
71777;SDS011;59609;52.430;4.668;2022-07-23T01:23:29;5.05;;;2.72;;
71777;SDS011;59609;52.430;4.668;2022-07-23T01:25:55;4.40;;;2.92;;
71777;SDS011;59609;52.430;4.668;2022-07-23T01:28:21;4.70;;;2.80;;
71777;SDS011;59609;52.430;4.668;2022-07-23T01:30:47;3.45;;;2.38;;
71777;SDS011;59609;52.430;4.668;2022-07-23T01:33:13;4.35;;;2.75;;
71777;SDS011;59609;52.430;4.668;2022-07-23T01:35:39;3.35;;;2.70;;
71777;SDS011;59609;52.430;4.668;2022-07-23T01:38:05;2.75;;;2.47;;
71777;SDS011;59609;52.430;4.668;2022-07-23T01:40:30;3.55;;;2.72;;
71777;SDS011;59609;52.430;4.668;2022-07-23T01:42:56;3.50;;;2.65;;
71777;SDS011;59609;52.430;4.668;2022-07-23T01:45:21;6.20;;;3.22;;
71777;SDS011;59609;52.430;4.668;2022-07-23T01:47:47;6.18;;;3.00;;
71777;SDS011;59609;52.430;4.668;2022-07-23T01:50:13;3.78;;;2.83;;
71777;SDS011;59609;52.430;4.668;2022-07-23T01:52:38;7.90;;;2.97;;
71777;SDS011;59609;52.430;4.668;2022-07-23T01:55:03;2.90;;;2.60;;
71777;SDS011;59609;52.430;4.668;2022-07-23T01:57:30;5.40;;;3.15;;
71777;SDS011;59609;52.430;4.668;2022-07-23T01:59:56;3.28;;;2.92;;
71777;SDS011;59609;52.430;4.668;2022-07-23T02:02:21;4.45;;;3.33;;
71777;SDS011;59609;52.430;4.668;2022-07-23T02:04:47;4.75;;;2.90;;
71777;SDS011;59609;52.430;4.668;2022-07-23T02:07:12;5.68;;;3.22;;
71777;SDS011;59609;52.430;4.668;2022-07-23T02:09:38;6.03;;;3.30;;
71777;SDS011;59609;52.430;4.668;2022-07-23T02:12:03;7.47;;;3.45;;
71777;SDS011;59609;52.430;4.668;2022-07-23T02:14:29;5.10;;;3.15;;
71777;SDS011;59609;52.430;4.668;2022-07-23T02:16:54;4.15;;;3.50;;
71777;SDS011;59609;52.430;4.668;2022-07-23T02:19:20;4.38;;;3.42;;
71777;SDS011;59609;52.430;4.668;2022-07-23T02:21:45;3.78;;;3.35;;
71777;SDS011;59609;52.430;4.668;2022-07-23T02:24:11;6.28;;;3.13;;
71777;SDS011;59609;52.430;4.668;2022-07-23T02:26:36;4.63;;;3.35;;
71777;SDS011;59609;52.430;4.668;2022-07-23T02:29:02;5.20;;;3.38;;
71777;SDS011;59609;52.430;4.668;2022-07-23T02:31:28;4.35;;;3.63;;
71777;SDS011;59609;52.430;4.668;2022-07-23T02:33:54;7.13;;;3.42;;
71777;SDS011;59609;52.430;4.668;2022-07-23T02:36:20;4.50;;;3.15;;
71777;SDS011;59609;52.430;4.668;2022-07-23T02:38:45;5.57;;;2.70;;
71777;SDS011;59609;52.430;4.668;2022-07-23T02:41:11;5.47;;;3.33;;
71777;SDS011;59609;52.430;4.668;2022-07-23T02:43:36;5.88;;;3.30;;
71777;SDS011;59609;52.430;4.668;2022-07-23T02:46:01;3.38;;;2.70;;
71777;SDS011;59609;52.430;4.668;2022-07-23T02:48:27;4.13;;;2.75;;
71777;SDS011;59609;52.430;4.668;2022-07-23T02:50:52;5.35;;;3.00;;
71777;SDS011;59609;52.430;4.668;2022-07-23T02:53:17;5.32;;;3.10;;
71777;SDS011;59609;52.430;4.668;2022-07-23T02:55:43;5.75;;;3.40;;
71777;SDS011;59609;52.430;4.668;2022-07-23T02:58:08;3.83;;;3.05;;
71777;SDS011;59609;52.430;4.668;2022-07-23T03:00:34;5.40;;;3.30;;
71777;SDS011;59609;52.430;4.668;2022-07-23T03:02:59;5.13;;;3.20;;
71777;SDS011;59609;52.430;4.668;2022-07-23T03:05:24;3.97;;;3.47;;
71777;SDS011;59609;52.430;4.668;2022-07-23T03:07:50;3.75;;;2.92;;
71777;SDS011;59609;52.430;4.668;2022-07-23T03:10:15;3.42;;;3.03;;
71777;SDS011;59609;52.430;4.668;2022-07-23T03:12:40;4.45;;;3.20;;
71777;SDS011;59609;52.430;4.668;2022-07-23T03:15:06;4.03;;;2.92;;
71777;SDS011;59609;52.430;4.668;2022-07-23T03:17:32;4.25;;;3.25;;
71777;SDS011;59609;52.430;4.668;2022-07-23T03:19:57;6.28;;;3.50;;
71777;SDS011;59609;52.430;4.668;2022-07-23T03:22:23;4.78;;;3.00;;
71777;SDS011;59609;52.430;4.668;2022-07-23T03:24:48;3.80;;;3.20;;
71777;SDS011;59609;52.430;4.668;2022-07-23T03:27:20;4.65;;;3.10;;
71777;SDS011;59609;52.430;4.668;2022-07-23T03:29:45;4.03;;;2.95;;
71777;SDS011;59609;52.430;4.668;2022-07-23T03:32:11;6.60;;;2.90;;
71777;SDS011;59609;52.430;4.668;2022-07-23T03:34:36;5.88;;;2.97;;
71777;SDS011;59609;52.430;4.668;2022-07-23T03:37:03;4.95;;;2.95;;
71777;SDS011;59609;52.430;4.668;2022-07-23T03:39:29;4.97;;;3.03;;
71777;SDS011;59609;52.430;4.668;2022-07-23T03:41:54;7.38;;;3.78;;
71777;SDS011;59609;52.430;4.668;2022-07-23T03:44:20;5.65;;;3.40;;
71777;SDS011;59609;52.430;4.668;2022-07-23T03:46:45;4.45;;;3.47;;
71777;SDS011;59609;52.430;4.668;2022-07-23T03:49:11;4.13;;;3.30;;
71777;SDS011;59609;52.430;4.668;2022-07-23T03:51:36;5.07;;;3.08;;
71777;SDS011;59609;52.430;4.668;2022-07-23T03:54:01;3.70;;;3.38;;
71777;SDS011;59609;52.430;4.668;2022-07-23T03:56:27;3.97;;;3.03;;
71777;SDS011;59609;52.430;4.668;2022-07-23T03:58:52;3.70;;;3.20;;
71777;SDS011;59609;52.430;4.668;2022-07-23T04:01:18;5.45;;;3.25;;
71777;SDS011;59609;52.430;4.668;2022-07-23T04:03:43;5.65;;;3.05;;
71777;SDS011;59609;52.430;4.668;2022-07-23T04:06:09;3.15;;;2.85;;
71777;SDS011;59609;52.430;4.668;2022-07-23T04:08:34;5.40;;;2.85;;
71777;SDS011;59609;52.430;4.668;2022-07-23T04:10:59;3.58;;;2.90;;
71777;SDS011;59609;52.430;4.668;2022-07-23T04:13:25;5.07;;;3.40;;
71777;SDS011;59609;52.430;4.668;2022-07-23T04:15:50;5.65;;;2.78;;
71777;SDS011;59609;52.430;4.668;2022-07-23T04:18:16;4.97;;;3.42;;
71777;SDS011;59609;52.430;4.668;2022-07-23T04:20:45;3.42;;;3.03;;
71777;SDS011;59609;52.430;4.668;2022-07-23T04:25:36;5.93;;;3.13;;
71777;SDS011;59609;52.430;4.668;2022-07-23T04:28:01;5.75;;;3.63;;
71777;SDS011;59609;52.430;4.668;2022-07-23T04:30:26;3.95;;;3.20;;
71777;SDS011;59609;52.430;4.668;2022-07-23T04:32:52;6.22;;;3.45;;
71777;SDS011;59609;52.430;4.668;2022-07-23T04:35:17;8.18;;;3.83;;
71777;SDS011;59609;52.430;4.668;2022-07-23T04:37:42;5.13;;;3.90;;
71777;SDS011;59609;52.430;4.668;2022-07-23T04:40:08;4.55;;;2.83;;
71777;SDS011;59609;52.430;4.668;2022-07-23T04:42:34;4.70;;;3.47;;
71777;SDS011;59609;52.430;4.668;2022-07-23T04:44:59;5.38;;;3.17;;
71777;SDS011;59609;52.430;4.668;2022-07-23T04:47:25;8.55;;;3.60;;
71777;SDS011;59609;52.430;4.668;2022-07-23T04:49:50;4.45;;;3.22;;
71777;SDS011;59609;52.430;4.668;2022-07-23T04:52:15;5.32;;;3.55;;
71777;SDS011;59609;52.430;4.668;2022-07-23T04:54:41;5.95;;;3.83;;
71777;SDS011;59609;52.430;4.668;2022-07-23T04:57:06;6.45;;;3.90;;
71777;SDS011;59609;52.430;4.668;2022-07-23T04:59:31;8.43;;;4.20;;
71777;SDS011;59609;52.430;4.668;2022-07-23T05:01:57;5.13;;;3.80;;
71777;SDS011;59609;52.430;4.668;2022-07-23T05:04:22;7.13;;;4.00;;
71777;SDS011;59609;52.430;4.668;2022-07-23T05:06:47;5.53;;;4.03;;
71777;SDS011;59609;52.430;4.668;2022-07-23T05:09:13;4.78;;;3.75;;
71777;SDS011;59609;52.430;4.668;2022-07-23T05:11:38;7.72;;;3.72;;
71777;SDS011;59609;52.430;4.668;2022-07-23T05:14:03;5.30;;;3.13;;
71777;SDS011;59609;52.430;4.668;2022-07-23T05:16:29;4.22;;;3.40;;
71777;SDS011;59609;52.430;4.668;2022-07-23T05:18:54;5.25;;;3.80;;
71777;SDS011;59609;52.430;4.668;2022-07-23T05:21:19;5.45;;;3.58;;
71777;SDS011;59609;52.430;4.668;2022-07-23T05:23:45;4.20;;;3.50;;
71777;SDS011;59609;52.430;4.668;2022-07-23T05:26:10;6.65;;;3.35;;
71777;SDS011;59609;52.430;4.668;2022-07-23T05:28:36;4.80;;;3.08;;
71777;SDS011;59609;52.430;4.668;2022-07-23T05:31:01;4.13;;;3.10;;
71777;SDS011;59609;52.430;4.668;2022-07-23T05:33:26;7.03;;;3.17;;
71777;SDS011;59609;52.430;4.668;2022-07-23T05:35:52;4.68;;;2.92;;
71777;SDS011;59609;52.430;4.668;2022-07-23T05:38:17;4.45;;;2.72;;
71777;SDS011;59609;52.430;4.668;2022-07-23T05:40:42;4.38;;;3.10;;
71777;SDS011;59609;52.430;4.668;2022-07-23T05:43:08;8.23;;;2.70;;
71777;SDS011;59609;52.430;4.668;2022-07-23T05:45:33;5.70;;;3.10;;
71777;SDS011;59609;52.430;4.668;2022-07-23T05:47:58;3.95;;;2.78;;
71777;SDS011;59609;52.430;4.668;2022-07-23T05:50:24;4.60;;;2.40;;
71777;SDS011;59609;52.430;4.668;2022-07-23T05:52:49;4.05;;;2.35;;
71777;SDS011;59609;52.430;4.668;2022-07-23T05:55:15;2.63;;;2.33;;
71777;SDS011;59609;52.430;4.668;2022-07-23T05:57:40;3.67;;;2.22;;
71777;SDS011;59609;52.430;4.668;2022-07-23T06:00:07;4.20;;;2.33;;
71777;SDS011;59609;52.430;4.668;2022-07-23T06:02:33;3.78;;;2.78;;
71777;SDS011;59609;52.430;4.668;2022-07-23T06:04:59;5.13;;;2.90;;
71777;SDS011;59609;52.430;4.668;2022-07-23T06:07:24;4.28;;;2.97;;
71777;SDS011;59609;52.430;4.668;2022-07-23T06:09:50;4.85;;;2.55;;
71777;SDS011;59609;52.430;4.668;2022-07-23T06:12:16;3.80;;;2.40;;
71777;SDS011;59609;52.430;4.668;2022-07-23T06:14:42;6.68;;;2.72;;
71777;SDS011;59609;52.430;4.668;2022-07-23T06:17:07;3.65;;;2.47;;
71777;SDS011;59609;52.430;4.668;2022-07-23T06:19:33;4.55;;;2.30;;
71777;SDS011;59609;52.430;4.668;2022-07-23T06:21:59;3.22;;;1.95;;
71777;SDS011;59609;52.430;4.668;2022-07-23T06:24:24;3.08;;;1.88;;
71777;SDS011;59609;52.430;4.668;2022-07-23T06:26:49;4.35;;;2.13;;
71777;SDS011;59609;52.430;4.668;2022-07-23T06:29:15;5.75;;;1.90;;
71777;SDS011;59609;52.430;4.668;2022-07-23T06:31:40;4.60;;;2.00;;
71777;SDS011;59609;52.430;4.668;2022-07-23T06:34:05;2.08;;;1.80;;
71777;SDS011;59609;52.430;4.668;2022-07-23T06:36:31;2.25;;;1.60;;
71777;SDS011;59609;52.430;4.668;2022-07-23T06:38:56;3.95;;;1.90;;
71777;SDS011;59609;52.430;4.668;2022-07-23T06:41:22;2.83;;;1.63;;
71777;SDS011;59609;52.430;4.668;2022-07-23T06:43:50;2.70;;;1.80;;
71777;SDS011;59609;52.430;4.668;2022-07-23T06:46:15;3.72;;;1.70;;
71777;SDS011;59609;52.430;4.668;2022-07-23T06:48:40;3.50;;;1.80;;
71777;SDS011;59609;52.430;4.668;2022-07-23T06:51:06;3.00;;;1.60;;
71777;SDS011;59609;52.430;4.668;2022-07-23T06:53:31;1.92;;;1.67;;
71777;SDS011;59609;52.430;4.668;2022-07-23T06:55:56;2.78;;;1.60;;
71777;SDS011;59609;52.430;4.668;2022-07-23T06:58:22;3.65;;;1.73;;
71777;SDS011;59609;52.430;4.668;2022-07-23T07:00:47;2.45;;;1.48;;
71777;SDS011;59609;52.430;4.668;2022-07-23T07:03:12;6.18;;;1.45;;
71777;SDS011;59609;52.430;4.668;2022-07-23T07:05:38;3.72;;;1.90;;
71777;SDS011;59609;52.430;4.668;2022-07-23T07:08:05;4.28;;;1.50;;
71777;SDS011;59609;52.430;4.668;2022-07-23T07:10:30;3.40;;;1.63;;
71777;SDS011;59609;52.430;4.668;2022-07-23T07:12:56;3.67;;;1.60;;
71777;SDS011;59609;52.430;4.668;2022-07-23T07:15:21;2.05;;;1.42;;
71777;SDS011;59609;52.430;4.668;2022-07-23T07:17:46;3.78;;;1.50;;
71777;SDS011;59609;52.430;4.668;2022-07-23T07:20:12;2.25;;;1.50;;
71777;SDS011;59609;52.430;4.668;2022-07-23T07:22:38;3.85;;;1.98;;
71777;SDS011;59609;52.430;4.668;2022-07-23T07:25:03;2.72;;;1.83;;
71777;SDS011;59609;52.430;4.668;2022-07-23T07:27:29;4.43;;;1.75;;
71777;SDS011;59609;52.430;4.668;2022-07-23T07:29:55;2.65;;;1.80;;
71777;SDS011;59609;52.430;4.668;2022-07-23T07:32:20;4.68;;;1.80;;
71777;SDS011;59609;52.430;4.668;2022-07-23T07:34:45;4.63;;;1.65;;
71777;SDS011;59609;52.430;4.668;2022-07-23T07:37:10;3.60;;;1.80;;
71777;SDS011;59609;52.430;4.668;2022-07-23T07:39:36;3.38;;;1.48;;
71777;SDS011;59609;52.430;4.668;2022-07-23T07:42:01;3.70;;;1.60;;
71777;SDS011;59609;52.430;4.668;2022-07-23T07:44:26;1.92;;;1.70;;
71777;SDS011;59609;52.430;4.668;2022-07-23T07:46:52;3.88;;;1.70;;
71777;SDS011;59609;52.430;4.668;2022-07-23T07:49:18;2.67;;;1.90;;
71777;SDS011;59609;52.430;4.668;2022-07-23T07:51:44;4.68;;;2.08;;
71777;SDS011;59609;52.430;4.668;2022-07-23T07:54:10;2.60;;;2.33;;
71777;SDS011;59609;52.430;4.668;2022-07-23T07:56:35;2.47;;;2.00;;
71777;SDS011;59609;52.430;4.668;2022-07-23T07:59:00;4.10;;;2.40;;
71777;SDS011;59609;52.430;4.668;2022-07-23T08:01:26;3.97;;;2.30;;
71777;SDS011;59609;52.430;4.668;2022-07-23T08:03:51;2.55;;;2.35;;
71777;SDS011;59609;52.430;4.668;2022-07-23T08:06:16;2.10;;;1.75;;
71777;SDS011;59609;52.430;4.668;2022-07-23T08:08:42;4.13;;;2.30;;
71777;SDS011;59609;52.430;4.668;2022-07-23T08:11:07;2.75;;;2.15;;
71777;SDS011;59609;52.430;4.668;2022-07-23T08:13:33;5.28;;;1.83;;
71777;SDS011;59609;52.430;4.668;2022-07-23T08:15:58;2.72;;;1.90;;
71777;SDS011;59609;52.430;4.668;2022-07-23T08:18:23;4.03;;;1.98;;
71777;SDS011;59609;52.430;4.668;2022-07-23T08:20:49;2.85;;;1.75;;
71777;SDS011;59609;52.430;4.668;2022-07-23T08:23:14;4.43;;;1.95;;
71777;SDS011;59609;52.430;4.668;2022-07-23T08:25:43;3.08;;;1.90;;
71777;SDS011;59609;52.430;4.668;2022-07-23T08:28:10;3.72;;;2.10;;
71777;SDS011;59609;52.430;4.668;2022-07-23T08:30:37;4.32;;;1.90;;
71777;SDS011;59609;52.430;4.668;2022-07-23T08:33:07;4.38;;;1.90;;
71777;SDS011;59609;52.430;4.668;2022-07-23T08:35:39;2.50;;;2.03;;
71777;SDS011;59609;52.430;4.668;2022-07-23T08:38:12;3.58;;;2.00;;
71777;SDS011;59609;52.430;4.668;2022-07-23T08:40:40;4.70;;;2.03;;
71777;SDS011;59609;52.430;4.668;2022-07-23T08:43:14;5.25;;;2.33;;
71777;SDS011;59609;52.430;4.668;2022-07-23T08:45:42;2.42;;;1.85;;
71777;SDS011;59609;52.430;4.668;2022-07-23T08:48:28;7.38;;;1.80;;
71777;SDS011;59609;52.430;4.668;2022-07-23T08:50:57;3.03;;;1.90;;
71777;SDS011;59609;52.430;4.668;2022-07-23T08:53:24;4.07;;;1.80;;
71777;SDS011;59609;52.430;4.668;2022-07-23T08:55:52;2.33;;;2.13;;
71777;SDS011;59609;52.430;4.668;2022-07-23T08:58:19;2.80;;;1.92;;
71777;SDS011;59609;52.430;4.668;2022-07-23T09:00:46;2.40;;;2.13;;
71777;SDS011;59609;52.430;4.668;2022-07-23T09:03:16;2.78;;;2.30;;
71777;SDS011;59609;52.430;4.668;2022-07-23T09:05:44;2.85;;;1.88;;
71777;SDS011;59609;52.430;4.668;2022-07-23T09:08:10;3.03;;;1.85;;
71777;SDS011;59609;52.430;4.668;2022-07-23T09:10:42;3.97;;;2.20;;
71777;SDS011;59609;52.430;4.668;2022-07-23T09:16:04;2.58;;;2.33;;
71777;SDS011;59609;52.430;4.668;2022-07-23T09:18:34;2.90;;;1.63;;
71777;SDS011;59609;52.430;4.668;2022-07-23T09:28:53;6.90;;;2.73;;
71777;SDS011;59609;52.430;4.668;2022-07-23T09:31:23;3.85;;;3.10;;
71777;SDS011;59609;52.430;4.668;2022-07-23T09:33:50;3.50;;;2.63;;
71777;SDS011;59609;52.430;4.668;2022-07-23T09:36:18;2.75;;;2.55;;
71777;SDS011;59609;52.430;4.668;2022-07-23T09:38:52;3.45;;;2.70;;
71777;SDS011;59609;52.430;4.668;2022-07-23T09:41:18;4.05;;;2.25;;
71777;SDS011;59609;52.430;4.668;2022-07-23T09:43:43;6.18;;;3.08;;
71777;SDS011;59609;52.430;4.668;2022-07-23T09:46:25;3.25;;;2.63;;
71777;SDS011;59609;52.430;4.668;2022-07-23T09:48:52;3.47;;;2.53;;
71777;SDS011;59609;52.430;4.668;2022-07-23T09:51:21;2.42;;;2.22;;
71777;SDS011;59609;52.430;4.668;2022-07-23T09:54:06;4.15;;;2.95;;
71777;SDS011;59609;52.430;4.668;2022-07-23T09:56:47;3.53;;;2.53;;
71777;SDS011;59609;52.430;4.668;2022-07-23T09:59:13;2.65;;;2.42;;
71777;SDS011;59609;52.430;4.668;2022-07-23T10:01:43;4.38;;;2.42;;
71777;SDS011;59609;52.430;4.668;2022-07-23T10:04:09;2.83;;;2.63;;
71777;SDS011;59609;52.430;4.668;2022-07-23T10:06:39;3.67;;;2.75;;
71777;SDS011;59609;52.430;4.668;2022-07-23T10:09:08;3.17;;;2.60;;
71777;SDS011;59609;52.430;4.668;2022-07-23T10:11:37;3.58;;;2.42;;
71777;SDS011;59609;52.430;4.668;2022-07-23T10:14:02;3.45;;;2.35;;
71777;SDS011;59609;52.430;4.668;2022-07-23T10:16:30;4.78;;;2.22;;
71777;SDS011;59609;52.430;4.668;2022-07-23T10:18:56;4.03;;;2.72;;
71777;SDS011;59609;52.430;4.668;2022-07-23T10:21:24;3.60;;;2.15;;
71777;SDS011;59609;52.430;4.668;2022-07-23T10:26:36;4.47;;;2.28;;
71777;SDS011;59609;52.430;4.668;2022-07-23T10:29:16;2.78;;;2.50;;
71777;SDS011;59609;52.430;4.668;2022-07-23T10:31:56;3.03;;;2.30;;
71777;SDS011;59609;52.430;4.668;2022-07-23T10:37:44;2.78;;;2.17;;
71777;SDS011;59609;52.430;4.668;2022-07-23T10:40:15;3.40;;;2.70;;
71777;SDS011;59609;52.430;4.668;2022-07-23T10:42:42;3.25;;;2.45;;
71777;SDS011;59609;52.430;4.668;2022-07-23T10:47:54;3.03;;;2.60;;
71777;SDS011;59609;52.430;4.668;2022-07-23T10:53:08;3.13;;;2.08;;
71777;SDS011;59609;52.430;4.668;2022-07-23T10:55:40;3.67;;;2.15;;
71777;SDS011;59609;52.430;4.668;2022-07-23T10:58:06;3.88;;;1.92;;
71777;SDS011;59609;52.430;4.668;2022-07-23T11:00:32;3.47;;;2.08;;
71777;SDS011;59609;52.430;4.668;2022-07-23T11:02:59;2.53;;;1.92;;
71777;SDS011;59609;52.430;4.668;2022-07-23T11:13:27;2.90;;;2.35;;
71777;SDS011;59609;52.430;4.668;2022-07-23T11:32:05;2.10;;;1.80;;
71777;SDS011;59609;52.430;4.668;2022-07-23T11:34:47;1.80;;;1.67;;
71777;SDS011;59609;52.430;4.668;2022-07-23T11:37:28;6.07;;;1.88;;
71777;SDS011;59609;52.430;4.668;2022-07-23T11:40:08;1.75;;;1.65;;
71777;SDS011;59609;52.430;4.668;2022-07-23T11:45:21;3.80;;;1.83;;
71777;SDS011;59609;52.430;4.668;2022-07-23T11:47:49;3.42;;;1.92;;
71777;SDS011;59609;52.430;4.668;2022-07-23T11:50:15;2.20;;;1.65;;
71777;SDS011;59609;52.430;4.668;2022-07-23T11:52:41;1.77;;;1.65;;
71777;SDS011;59609;52.430;4.668;2022-07-23T11:55:07;2.05;;;1.83;;
71777;SDS011;59609;52.430;4.668;2022-07-23T11:57:36;2.72;;;1.73;;
71777;SDS011;59609;52.430;4.668;2022-07-23T12:00:05;1.95;;;1.83;;
71777;SDS011;59609;52.430;4.668;2022-07-23T12:02:42;2.20;;;2.08;;
71777;SDS011;59609;52.430;4.668;2022-07-23T12:05:12;3.50;;;1.95;;
71777;SDS011;59609;52.430;4.668;2022-07-23T12:07:41;3.40;;;2.35;;
71777;SDS011;59609;52.430;4.668;2022-07-23T12:12:43;2.20;;;2.05;;
71777;SDS011;59609;52.430;4.668;2022-07-23T12:15:13;2.00;;;1.40;;
71777;SDS011;59609;52.430;4.668;2022-07-23T12:17:40;3.47;;;2.15;;
71777;SDS011;59609;52.430;4.668;2022-07-23T12:20:08;4.72;;;2.20;;
71777;SDS011;59609;52.430;4.668;2022-07-23T12:22:40;4.43;;;2.22;;
71777;SDS011;59609;52.430;4.668;2022-07-23T12:25:15;4.35;;;2.22;;
71777;SDS011;59609;52.430;4.668;2022-07-23T12:27:44;2.25;;;2.05;;
71777;SDS011;59609;52.430;4.668;2022-07-23T12:30:17;2.42;;;1.90;;
71777;SDS011;59609;52.430;4.668;2022-07-23T12:32:46;1.75;;;1.65;;
71777;SDS011;59609;52.430;4.668;2022-07-23T12:35:14;2.90;;;2.03;;
71777;SDS011;59609;52.430;4.668;2022-07-23T12:37:41;3.53;;;1.90;;
71777;SDS011;59609;52.430;4.668;2022-07-23T12:42:52;2.30;;;2.20;;
71777;SDS011;59609;52.430;4.668;2022-07-23T12:45:20;2.88;;;2.58;;
71777;SDS011;59609;52.430;4.668;2022-07-23T12:50:38;2.67;;;2.45;;
71777;SDS011;59609;52.430;4.668;2022-07-23T12:53:42;2.65;;;2.30;;
71777;SDS011;59609;52.430;4.668;2022-07-23T12:56:13;2.03;;;1.92;;
71777;SDS011;59609;52.430;4.668;2022-07-23T12:58:48;3.15;;;1.98;;
71777;SDS011;59609;52.430;4.668;2022-07-23T13:03:55;3.22;;;3.03;;
71777;SDS011;59609;52.430;4.668;2022-07-23T13:06:23;2.63;;;2.13;;
71777;SDS011;59609;52.430;4.668;2022-07-23T13:08:48;2.67;;;2.45;;
71777;SDS011;59609;52.430;4.668;2022-07-23T13:11:14;8.13;;;2.78;;
71777;SDS011;59609;52.430;4.668;2022-07-23T13:13:39;2.67;;;1.38;;
71777;SDS011;59609;52.430;4.668;2022-07-23T13:16:06;2.70;;;2.50;;
71777;SDS011;59609;52.430;4.668;2022-07-23T13:18:31;2.55;;;2.35;;
71777;SDS011;59609;52.430;4.668;2022-07-23T13:20:57;2.38;;;2.17;;
71777;SDS011;59609;52.430;4.668;2022-07-23T13:23:23;2.42;;;2.20;;
71777;SDS011;59609;52.430;4.668;2022-07-23T13:25:49;2.88;;;2.65;;
71777;SDS011;59609;52.430;4.668;2022-07-23T13:28:15;2.83;;;2.63;;
71777;SDS011;59609;52.430;4.668;2022-07-23T13:30:42;2.90;;;2.03;;
71777;SDS011;59609;52.430;4.668;2022-07-23T13:33:09;2.00;;;1.88;;
71777;SDS011;59609;52.430;4.668;2022-07-23T13:35:35;3.83;;;2.15;;
71777;SDS011;59609;52.430;4.668;2022-07-23T13:38:02;5.53;;;2.38;;
71777;SDS011;59609;52.430;4.668;2022-07-23T13:40:32;2.58;;;2.38;;
71777;SDS011;59609;52.430;4.668;2022-07-23T13:42:58;2.85;;;1.92;;
71777;SDS011;59609;52.430;4.668;2022-07-23T13:45:23;2.85;;;2.20;;
71777;SDS011;59609;52.430;4.668;2022-07-23T13:47:49;2.97;;;2.10;;
71777;SDS011;59609;52.430;4.668;2022-07-23T13:50:14;2.75;;;2.20;;
71777;SDS011;59609;52.430;4.668;2022-07-23T13:52:41;2.63;;;2.10;;
71777;SDS011;59609;52.430;4.668;2022-07-23T13:55:07;3.22;;;2.03;;
71777;SDS011;59609;52.430;4.668;2022-07-23T13:57:33;2.22;;;2.03;;
71777;SDS011;59609;52.430;4.668;2022-07-23T13:59:58;2.58;;;2.38;;
71777;SDS011;59609;52.430;4.668;2022-07-23T14:02:24;3.72;;;1.92;;
71777;SDS011;59609;52.430;4.668;2022-07-23T14:04:49;2.70;;;2.03;;
71777;SDS011;59609;52.430;4.668;2022-07-23T14:07:15;5.25;;;2.13;;
71777;SDS011;59609;52.430;4.668;2022-07-23T14:09:41;3.33;;;2.25;;
71777;SDS011;59609;52.430;4.668;2022-07-23T14:12:07;3.17;;;1.67;;
71777;SDS011;59609;52.430;4.668;2022-07-23T14:14:33;2.47;;;2.17;;
71777;SDS011;59609;52.430;4.668;2022-07-23T14:16:58;2.83;;;2.58;;
71777;SDS011;59609;52.430;4.668;2022-07-23T14:19:24;2.25;;;2.15;;
71777;SDS011;59609;52.430;4.668;2022-07-23T14:21:49;2.40;;;1.90;;
71777;SDS011;59609;52.430;4.668;2022-07-23T14:24:15;2.60;;;2.40;;
71777;SDS011;59609;52.430;4.668;2022-07-23T14:26:41;3.92;;;2.38;;
71777;SDS011;59609;52.430;4.668;2022-07-23T14:29:06;2.17;;;1.73;;
71777;SDS011;59609;52.430;4.668;2022-07-23T14:31:32;3.08;;;2.00;;
71777;SDS011;59609;52.430;4.668;2022-07-23T14:33:57;2.72;;;2.53;;
71777;SDS011;59609;52.430;4.668;2022-07-23T14:36:24;4.00;;;2.38;;
71777;SDS011;59609;52.430;4.668;2022-07-23T14:38:50;3.80;;;2.20;;
71777;SDS011;59609;52.430;4.668;2022-07-23T14:41:15;3.85;;;2.22;;
71777;SDS011;59609;52.430;4.668;2022-07-23T14:43:41;3.28;;;2.22;;
71777;SDS011;59609;52.430;4.668;2022-07-23T14:46:07;3.13;;;2.92;;
71777;SDS011;59609;52.430;4.668;2022-07-23T14:48:32;2.72;;;2.35;;
71777;SDS011;59609;52.430;4.668;2022-07-23T14:50:58;2.33;;;2.20;;
71777;SDS011;59609;52.430;4.668;2022-07-23T14:53:23;3.65;;;1.50;;
71777;SDS011;59609;52.430;4.668;2022-07-23T14:55:48;5.75;;;2.55;;
71777;SDS011;59609;52.430;4.668;2022-07-23T14:58:14;3.58;;;2.10;;
71777;SDS011;59609;52.430;4.668;2022-07-23T15:00:39;3.95;;;2.38;;
71777;SDS011;59609;52.430;4.668;2022-07-23T15:03:05;2.60;;;2.08;;
71777;SDS011;59609;52.430;4.668;2022-07-23T15:05:30;5.15;;;2.00;;
71777;SDS011;59609;52.430;4.668;2022-07-23T15:07:55;2.00;;;1.90;;
71777;SDS011;59609;52.430;4.668;2022-07-23T15:10:21;2.28;;;2.08;;
71777;SDS011;59609;52.430;4.668;2022-07-23T15:12:46;3.72;;;2.30;;
71777;SDS011;59609;52.430;4.668;2022-07-23T15:15:12;5.43;;;2.40;;
71777;SDS011;59609;52.430;4.668;2022-07-23T15:17:38;3.40;;;2.20;;
71777;SDS011;59609;52.430;4.668;2022-07-23T15:20:04;2.10;;;2.00;;
71777;SDS011;59609;52.430;4.668;2022-07-23T15:22:29;6.07;;;2.30;;
71777;SDS011;59609;52.430;4.668;2022-07-23T15:24:55;2.75;;;2.05;;
71777;SDS011;59609;52.430;4.668;2022-07-23T15:27:20;3.60;;;2.80;;
71777;SDS011;59609;52.430;4.668;2022-07-23T15:29:46;3.40;;;2.42;;
71777;SDS011;59609;52.430;4.668;2022-07-23T15:32:11;6.03;;;2.58;;
71777;SDS011;59609;52.430;4.668;2022-07-23T15:34:37;2.45;;;2.25;;
71777;SDS011;59609;52.430;4.668;2022-07-23T15:37:03;2.38;;;2.13;;
71777;SDS011;59609;52.430;4.668;2022-07-23T15:39:32;1.90;;;1.73;;
71777;SDS011;59609;52.430;4.668;2022-07-23T15:42:01;2.72;;;1.90;;
71777;SDS011;59609;52.430;4.668;2022-07-23T15:44:27;2.30;;;2.10;;
71777;SDS011;59609;52.430;4.668;2022-07-23T15:46:53;2.65;;;2.45;;